sensor_id;sensor_type;location;lat;lon;timestamp;pressure;altitude;pressure_sealevel;temperature;humidity
62942;BME280;49042;47.318;19.874;2022-10-13T00:03:01;101268.88;;;10.30;97.96
62942;BME280;49042;47.318;19.874;2022-10-13T00:06:06;101264.03;;;10.38;97.22
62942;BME280;49042;47.318;19.874;2022-10-13T00:09:08;101260.41;;;10.34;96.90
62942;BME280;49042;47.318;19.874;2022-10-13T00:12:10;101257.16;;;10.40;96.72
62942;BME280;49042;47.318;19.874;2022-10-13T00:15:12;101264.44;;;10.27;96.71
62942;BME280;49042;47.318;19.874;2022-10-13T00:18:14;101262.03;;;10.32;97.03
62942;BME280;49042;47.318;19.874;2022-10-13T00:21:21;101258.66;;;10.15;95.63
62942;BME280;49042;47.318;19.874;2022-10-13T00:24:23;101260.22;;;10.11;97.05
62942;BME280;49042;47.318;19.874;2022-10-13T00:27:25;101254.59;;;10.02;97.34
62942;BME280;49042;47.318;19.874;2022-10-13T00:30:27;101254.94;;;10.10;96.49
62942;BME280;49042;47.318;19.874;2022-10-13T00:33:28;101256.69;;;9.91;96.68
62942;BME280;49042;47.318;19.874;2022-10-13T00:36:30;101256.44;;;9.86;96.59
62942;BME280;49042;47.318;19.874;2022-10-13T00:39:33;101260.44;;;9.78;97.22
62942;BME280;49042;47.318;19.874;2022-10-13T00:42:39;101257.31;;;9.67;98.02
62942;BME280;49042;47.318;19.874;2022-10-13T00:45:42;101256.03;;;9.77;97.25
62942;BME280;49042;47.318;19.874;2022-10-13T00:48:44;101255.50;;;9.84;96.28
62942;BME280;49042;47.318;19.874;2022-10-13T00:51:48;101249.63;;;9.88;95.69
62942;BME280;49042;47.318;19.874;2022-10-13T00:54:51;101243.25;;;9.63;96.79
62942;BME280;49042;47.318;19.874;2022-10-13T00:57:54;101243.09;;;9.60;96.79
62942;BME280;49042;47.318;19.874;2022-10-13T01:00:57;101245.09;;;9.66;96.24
62942;BME280;49042;47.318;19.874;2022-10-13T01:04:00;101247.50;;;9.61;96.27
62942;BME280;49042;47.318;19.874;2022-10-13T01:07:02;101247.41;;;9.59;96.28
62942;BME280;49042;47.318;19.874;2022-10-13T01:10:05;101247.13;;;9.53;95.24
62942;BME280;49042;47.318;19.874;2022-10-13T01:13:23;101252.38;;;9.55;95.62
62942;BME280;49042;47.318;19.874;2022-10-13T01:27:14;101250.37;;;9.49;97.51
62942;BME280;49042;47.318;19.874;2022-10-13T01:30:21;101242.12;;;9.39;97.36
62942;BME280;49042;47.318;19.874;2022-10-13T01:33:38;101250.31;;;9.47;96.06
62942;BME280;49042;47.318;19.874;2022-10-13T01:36:52;101239.31;;;9.53;95.81
62942;BME280;49042;47.318;19.874;2022-10-13T01:40:03;101246.66;;;9.43;96.66
62942;BME280;49042;47.318;19.874;2022-10-13T01:43:17;101256.12;;;9.41;95.97
62942;BME280;49042;47.318;19.874;2022-10-13T01:46:25;101253.81;;;9.48;95.64
62942;BME280;49042;47.318;19.874;2022-10-13T01:49:33;101253.19;;;9.17;96.47
62942;BME280;49042;47.318;19.874;2022-10-13T01:52:37;101257.50;;;8.81;100.00
62942;BME280;49042;47.318;19.874;2022-10-13T01:55:58;101256.22;;;8.73;99.25
62942;BME280;49042;47.318;19.874;2022-10-13T01:59:04;101253.09;;;8.80;98.89
62942;BME280;49042;47.318;19.874;2022-10-13T02:02:31;101249.44;;;8.76;100.00
62942;BME280;49042;47.318;19.874;2022-10-13T02:05:50;101253.00;;;8.95;98.71
62942;BME280;49042;47.318;19.874;2022-10-13T02:09:25;101257.16;;;8.58;99.43
62942;BME280;49042;47.318;19.874;2022-10-13T02:12:35;101254.78;;;8.29;100.00
62942;BME280;49042;47.318;19.874;2022-10-13T02:15:44;101243.13;;;8.71;100.00
62942;BME280;49042;47.318;19.874;2022-10-13T02:18:46;101237.81;;;8.86;99.61
62942;BME280;49042;47.318;19.874;2022-10-13T02:21:50;101239.78;;;8.74;99.70
62942;BME280;49042;47.318;19.874;2022-10-13T02:24:52;101241.22;;;8.85;98.49
62942;BME280;49042;47.318;19.874;2022-10-13T02:27:57;101236.13;;;8.70;99.45
62942;BME280;49042;47.318;19.874;2022-10-13T02:31:00;101233.19;;;8.47;98.80
62942;BME280;49042;47.318;19.874;2022-10-13T02:34:03;101230.19;;;8.39;100.00
62942;BME280;49042;47.318;19.874;2022-10-13T02:37:05;101219.78;;;8.39;100.00
62942;BME280;49042;47.318;19.874;2022-10-13T02:40:07;101236.91;;;8.19;100.00
62942;BME280;49042;47.318;19.874;2022-10-13T02:43:09;101236.75;;;8.32;100.00
62942;BME280;49042;47.318;19.874;2022-10-13T02:46:11;101235.94;;;8.17;100.00
62942;BME280;49042;47.318;19.874;2022-10-13T02:49:13;101234.06;;;7.97;100.00
62942;BME280;49042;47.318;19.874;2022-10-13T02:52:15;101231.56;;;8.16;100.00
62942;BME280;49042;47.318;19.874;2022-10-13T02:55:17;101229.91;;;8.01;100.00
62942;BME280;49042;47.318;19.874;2022-10-13T02:58:19;101227.34;;;7.69;100.00
62942;BME280;49042;47.318;19.874;2022-10-13T03:01:21;101227.22;;;7.67;100.00
62942;BME280;49042;47.318;19.874;2022-10-13T03:04:23;101233.44;;;7.54;100.00
62942;BME280;49042;47.318;19.874;2022-10-13T03:07:25;101231.53;;;7.35;100.00
62942;BME280;49042;47.318;19.874;2022-10-13T03:10:27;101236.59;;;7.48;100.00
62942;BME280;49042;47.318;19.874;2022-10-13T03:13:30;101236.84;;;7.53;100.00
62942;BME280;49042;47.318;19.874;2022-10-13T03:16:32;101243.53;;;7.65;100.00
62942;BME280;49042;47.318;19.874;2022-10-13T03:19:34;101242.03;;;7.53;100.00
62942;BME280;49042;47.318;19.874;2022-10-13T03:22:36;101239.06;;;7.62;100.00
62942;BME280;49042;47.318;19.874;2022-10-13T03:25:38;101240.91;;;7.80;100.00
62942;BME280;49042;47.318;19.874;2022-10-13T03:28:39;101247.50;;;7.90;100.00
62942;BME280;49042;47.318;19.874;2022-10-13T03:31:41;101246.19;;;7.81;100.00
62942;BME280;49042;47.318;19.874;2022-10-13T03:34:43;101245.53;;;7.86;100.00
62942;BME280;49042;47.318;19.874;2022-10-13T03:37:45;101248.31;;;7.89;100.00
62942;BME280;49042;47.318;19.874;2022-10-13T03:40:47;101240.59;;;7.74;100.00
62942;BME280;49042;47.318;19.874;2022-10-13T03:43:49;101239.44;;;7.85;100.00
62942;BME280;49042;47.318;19.874;2022-10-13T03:46:50;101240.47;;;7.72;100.00
62942;BME280;49042;47.318;19.874;2022-10-13T03:49:53;101236.25;;;7.74;100.00
62942;BME280;49042;47.318;19.874;2022-10-13T03:52:55;101233.94;;;7.96;99.60
62942;BME280;49042;47.318;19.874;2022-10-13T03:55:57;101231.88;;;8.05;99.11
62942;BME280;49042;47.318;19.874;2022-10-13T03:58:59;101226.25;;;7.97;98.88
62942;BME280;49042;47.318;19.874;2022-10-13T04:02:02;101236.03;;;8.18;97.92
62942;BME280;49042;47.318;19.874;2022-10-13T04:05:04;101228.91;;;7.99;97.69
62942;BME280;49042;47.318;19.874;2022-10-13T04:08:06;101227.63;;;7.90;98.16
62942;BME280;49042;47.318;19.874;2022-10-13T04:11:10;101232.66;;;7.87;98.52
62942;BME280;49042;47.318;19.874;2022-10-13T04:14:12;101238.31;;;7.80;98.65
62942;BME280;49042;47.318;19.874;2022-10-13T04:17:14;101228.72;;;7.79;99.83
62942;BME280;49042;47.318;19.874;2022-10-13T04:20:16;101213.84;;;7.91;98.58
62942;BME280;49042;47.318;19.874;2022-10-13T04:23:18;101219.50;;;7.84;99.02
62942;BME280;49042;47.318;19.874;2022-10-13T04:26:21;101223.97;;;7.87;98.75
62942;BME280;49042;47.318;19.874;2022-10-13T04:29:23;101222.84;;;7.98;98.00
62942;BME280;49042;47.318;19.874;2022-10-13T04:32:26;101226.13;;;7.79;98.77
62942;BME280;49042;47.318;19.874;2022-10-13T04:35:28;101221.34;;;7.70;99.18
62942;BME280;49042;47.318;19.874;2022-10-13T04:38:30;101223.50;;;7.94;97.74
62942;BME280;49042;47.318;19.874;2022-10-13T04:41:31;101222.28;;;7.87;97.83
62942;BME280;49042;47.318;19.874;2022-10-13T04:44:33;101222.03;;;7.67;96.12
62942;BME280;49042;47.318;19.874;2022-10-13T04:47:35;101226.06;;;7.30;98.36
62942;BME280;49042;47.318;19.874;2022-10-13T04:50:40;101233.03;;;7.31;98.82
62942;BME280;49042;47.318;19.874;2022-10-13T04:53:42;101237.50;;;7.49;99.18
62942;BME280;49042;47.318;19.874;2022-10-13T04:56:44;101231.03;;;7.57;99.20
62942;BME280;49042;47.318;19.874;2022-10-13T04:59:46;101238.97;;;7.60;98.47
62942;BME280;49042;47.318;19.874;2022-10-13T05:02:48;101235.69;;;7.63;98.60
62942;BME280;49042;47.318;19.874;2022-10-13T05:05:51;101236.81;;;7.68;97.90
62942;BME280;49042;47.318;19.874;2022-10-13T05:08:54;101245.41;;;7.67;97.43
62942;BME280;49042;47.318;19.874;2022-10-13T05:11:56;101242.75;;;7.50;97.50
62942;BME280;49042;47.318;19.874;2022-10-13T05:14:58;101234.13;;;7.35;98.60
62942;BME280;49042;47.318;19.874;2022-10-13T05:18:00;101236.50;;;7.47;98.53
62942;BME280;49042;47.318;19.874;2022-10-13T05:21:09;101238.53;;;7.68;97.54
62942;BME280;49042;47.318;19.874;2022-10-13T05:24:12;101240.44;;;7.55;97.49
62942;BME280;49042;47.318;19.874;2022-10-13T05:27:14;101236.00;;;7.37;98.03
62942;BME280;49042;47.318;19.874;2022-10-13T05:30:16;101237.00;;;7.71;96.66
62942;BME280;49042;47.318;19.874;2022-10-13T05:33:18;101240.34;;;7.86;95.98
62942;BME280;49042;47.318;19.874;2022-10-13T05:36:33;101235.28;;;7.72;96.74
62942;BME280;49042;47.318;19.874;2022-10-13T05:39:35;101239.59;;;7.71;96.89
62942;BME280;49042;47.318;19.874;2022-10-13T05:42:37;101242.88;;;7.84;95.34
62942;BME280;49042;47.318;19.874;2022-10-13T05:45:39;101247.25;;;7.85;95.82
62942;BME280;49042;47.318;19.874;2022-10-13T05:48:41;101247.91;;;8.30;94.80
62942;BME280;49042;47.318;19.874;2022-10-13T05:51:46;101252.19;;;8.46;94.20
62942;BME280;49042;47.318;19.874;2022-10-13T05:54:52;101247.31;;;8.52;93.16
62942;BME280;49042;47.318;19.874;2022-10-13T05:57:55;101238.97;;;8.75;92.87
62942;BME280;49042;47.318;19.874;2022-10-13T06:00:57;101241.44;;;9.07;91.33
62942;BME280;49042;47.318;19.874;2022-10-13T06:04:03;101239.16;;;9.31;88.49
62942;BME280;49042;47.318;19.874;2022-10-13T06:07:08;101241.59;;;9.65;87.10
62942;BME280;49042;47.318;19.874;2022-10-13T06:10:10;101246.78;;;9.83;86.13
62942;BME280;49042;47.318;19.874;2022-10-13T06:13:12;101247.41;;;10.16;84.71
62942;BME280;49042;47.318;19.874;2022-10-13T06:16:14;101248.53;;;10.41;83.63
62942;BME280;49042;47.318;19.874;2022-10-13T06:19:16;101244.34;;;10.65;83.33
62942;BME280;49042;47.318;19.874;2022-10-13T06:22:18;101243.25;;;11.01;81.35
62942;BME280;49042;47.318;19.874;2022-10-13T06:25:20;101246.13;;;11.29;80.49
62942;BME280;49042;47.318;19.874;2022-10-13T06:28:22;101251.50;;;11.76;74.60
62942;BME280;49042;47.318;19.874;2022-10-13T06:31:24;101253.50;;;12.30;72.43
62942;BME280;49042;47.318;19.874;2022-10-13T06:34:25;101261.59;;;12.36;71.40
62942;BME280;49042;47.318;19.874;2022-10-13T06:37:27;101259.88;;;12.14;69.75
62942;BME280;49042;47.318;19.874;2022-10-13T06:40:29;101266.41;;;12.02;70.54
62942;BME280;49042;47.318;19.874;2022-10-13T06:43:32;101268.56;;;11.89;70.67
62942;BME280;49042;47.318;19.874;2022-10-13T06:46:40;101264.06;;;11.64;71.89
62942;BME280;49042;47.318;19.874;2022-10-13T06:49:42;101264.41;;;11.73;72.44
62942;BME280;49042;47.318;19.874;2022-10-13T06:52:44;101262.69;;;11.74;72.79
62942;BME280;49042;47.318;19.874;2022-10-13T06:55:46;101265.44;;;11.11;74.52
62942;BME280;49042;47.318;19.874;2022-10-13T06:58:53;101259.31;;;11.53;75.37
62942;BME280;49042;47.318;19.874;2022-10-13T07:01:54;101258.38;;;11.30;74.99
62942;BME280;49042;47.318;19.874;2022-10-13T07:04:56;101262.56;;;11.26;74.94
62942;BME280;49042;47.318;19.874;2022-10-13T07:07:58;101256.09;;;11.38;74.54
62942;BME280;49042;47.318;19.874;2022-10-13T07:11:08;101250.09;;;11.19;76.47
62942;BME280;49042;47.318;19.874;2022-10-13T07:14:16;101250.31;;;11.46;76.96
62942;BME280;49042;47.318;19.874;2022-10-13T07:17:17;101253.22;;;11.76;73.81
62942;BME280;49042;47.318;19.874;2022-10-13T07:20:21;101257.66;;;11.78;73.98
62942;BME280;49042;47.318;19.874;2022-10-13T07:23:23;101251.16;;;11.90;74.09
62942;BME280;49042;47.318;19.874;2022-10-13T07:26:25;101246.84;;;12.38;72.01
62942;BME280;49042;47.318;19.874;2022-10-13T07:29:26;101244.66;;;13.28;68.25
62942;BME280;49042;47.318;19.874;2022-10-13T07:32:30;101243.19;;;13.94;65.60
62942;BME280;49042;47.318;19.874;2022-10-13T07:35:32;101250.63;;;14.72;61.43
62942;BME280;49042;47.318;19.874;2022-10-13T07:38:34;101239.91;;;16.55;56.61
62942;BME280;49042;47.318;19.874;2022-10-13T07:41:36;101245.09;;;17.57;53.85
62942;BME280;49042;47.318;19.874;2022-10-13T07:44:38;101245.81;;;18.87;48.63
62942;BME280;49042;47.318;19.874;2022-10-13T07:47:40;101240.56;;;18.90;47.09
62942;BME280;49042;47.318;19.874;2022-10-13T07:50:41;101235.31;;;20.45;44.12
62942;BME280;49042;47.318;19.874;2022-10-13T07:53:43;101230.94;;;21.49;40.39
62942;BME280;49042;47.318;19.874;2022-10-13T07:56:50;101230.00;;;21.71;39.12
62942;BME280;49042;47.318;19.874;2022-10-13T07:59:52;101230.97;;;20.88;39.81
62942;BME280;49042;47.318;19.874;2022-10-13T08:02:55;101230.06;;;21.39;38.87
62942;BME280;49042;47.318;19.874;2022-10-13T08:06:00;101221.22;;;20.93;40.48
62942;BME280;49042;47.318;19.874;2022-10-13T08:09:03;101218.56;;;20.93;40.91
62942;BME280;49042;47.318;19.874;2022-10-13T08:12:05;101224.50;;;19.95;43.12
62942;BME280;49042;47.318;19.874;2022-10-13T08:15:07;101228.62;;;19.39;44.65
62942;BME280;49042;47.318;19.874;2022-10-13T08:18:11;101225.50;;;18.84;45.71
62942;BME280;49042;47.318;19.874;2022-10-13T08:21:15;101225.97;;;19.37;48.07
62942;BME280;49042;47.318;19.874;2022-10-13T08:24:38;101220.03;;;19.83;44.64
62942;BME280;49042;47.318;19.874;2022-10-13T08:27:39;101216.63;;;18.72;47.19
62942;BME280;49042;47.318;19.874;2022-10-13T08:30:52;101215.16;;;19.08;43.25
62942;BME280;49042;47.318;19.874;2022-10-13T08:33:54;101215.72;;;18.73;44.71
62942;BME280;49042;47.318;19.874;2022-10-13T08:36:56;101218.19;;;19.64;41.80
62942;BME280;49042;47.318;19.874;2022-10-13T08:40:00;101210.59;;;21.39;40.85
62942;BME280;49042;47.318;19.874;2022-10-13T08:43:05;101211.03;;;22.51;37.13
62942;BME280;49042;47.318;19.874;2022-10-13T08:46:08;101206.94;;;21.86;36.32
62942;BME280;49042;47.318;19.874;2022-10-13T08:49:12;101214.91;;;21.97;35.97
62942;BME280;49042;47.318;19.874;2022-10-13T08:52:25;101217.25;;;22.52;36.76
62942;BME280;49042;47.318;19.874;2022-10-13T08:58:34;101207.97;;;21.44;36.78
62942;BME280;49042;47.318;19.874;2022-10-13T09:01:36;101215.03;;;20.72;38.41
62942;BME280;49042;47.318;19.874;2022-10-13T09:04:40;101216.53;;;19.87;39.98
62942;BME280;49042;47.318;19.874;2022-10-13T09:07:44;101215.84;;;20.33;39.87
62942;BME280;49042;47.318;19.874;2022-10-13T09:10:50;101214.03;;;21.87;37.57
62942;BME280;49042;47.318;19.874;2022-10-13T09:13:54;101207.09;;;21.13;39.53
62942;BME280;49042;47.318;19.874;2022-10-13T09:17:21;101207.00;;;21.71;37.25
62942;BME280;49042;47.318;19.874;2022-10-13T09:20:24;101210.91;;;22.72;35.18
62942;BME280;49042;47.318;19.874;2022-10-13T09:23:28;101205.19;;;23.22;33.81
62942;BME280;49042;47.318;19.874;2022-10-13T09:26:30;101202.59;;;24.62;32.19
62942;BME280;49042;47.318;19.874;2022-10-13T09:29:37;101206.84;;;24.10;32.60
62942;BME280;49042;47.318;19.874;2022-10-13T09:32:40;101211.69;;;23.80;32.49
62942;BME280;49042;47.318;19.874;2022-10-13T09:35:48;101204.44;;;25.13;30.64
62942;BME280;49042;47.318;19.874;2022-10-13T09:39:12;101214.66;;;24.24;30.58
62942;BME280;49042;47.318;19.874;2022-10-13T09:42:28;101204.16;;;24.75;30.51
62942;BME280;49042;47.318;19.874;2022-10-13T09:45:30;101199.72;;;24.76;30.32
62942;BME280;49042;47.318;19.874;2022-10-13T09:48:35;101195.38;;;24.68;31.28
62942;BME280;49042;47.318;19.874;2022-10-13T09:51:42;101194.53;;;24.66;30.37
62942;BME280;49042;47.318;19.874;2022-10-13T09:54:51;101195.25;;;23.40;32.45
62942;BME280;49042;47.318;19.874;2022-10-13T09:57:54;101193.75;;;21.65;35.53
62942;BME280;49042;47.318;19.874;2022-10-13T10:00:57;101195.59;;;20.62;37.24
62942;BME280;49042;47.318;19.874;2022-10-13T10:04:03;101197.84;;;19.52;38.29
62942;BME280;49042;47.318;19.874;2022-10-13T10:07:14;101192.53;;;19.51;39.85
62942;BME280;49042;47.318;19.874;2022-10-13T10:10:34;101185.59;;;19.72;40.69
62942;BME280;49042;47.318;19.874;2022-10-13T10:13:36;101176.00;;;19.99;39.16
62942;BME280;49042;47.318;19.874;2022-10-13T10:16:42;101181.06;;;19.48;38.90
62942;BME280;49042;47.318;19.874;2022-10-13T10:19:47;101176.53;;;19.30;41.45
62942;BME280;49042;47.318;19.874;2022-10-13T10:22:58;101160.78;;;19.49;40.73
62942;BME280;49042;47.318;19.874;2022-10-13T10:26:14;101165.75;;;19.03;41.67
62942;BME280;49042;47.318;19.874;2022-10-13T10:29:43;101156.16;;;19.20;41.55
62942;BME280;49042;47.318;19.874;2022-10-13T10:33:08;101146.00;;;18.59;43.11
62942;BME280;49042;47.318;19.874;2022-10-13T10:36:20;101139.41;;;19.14;44.51
62942;BME280;49042;47.318;19.874;2022-10-13T10:39:36;101139.28;;;18.97;42.87
62942;BME280;49042;47.318;19.874;2022-10-13T10:46:11;101141.00;;;18.90;45.16
62942;BME280;49042;47.318;19.874;2022-10-13T10:49:25;101132.94;;;18.71;43.37
62942;BME280;49042;47.318;19.874;2022-10-13T10:52:41;101127.00;;;19.04;45.29
62942;BME280;49042;47.318;19.874;2022-10-13T10:55:57;101123.66;;;19.32;43.80
62942;BME280;49042;47.318;19.874;2022-10-13T11:08:57;101103.62;;;19.86;43.92
62942;BME280;49042;47.318;19.874;2022-10-13T11:11:59;101106.09;;;19.43;44.69
62942;BME280;49042;47.318;19.874;2022-10-13T11:15:02;101090.38;;;19.95;45.33
62942;BME280;49042;47.318;19.874;2022-10-13T11:22:10;101088.72;;;20.27;44.95
62942;BME280;49042;47.318;19.874;2022-10-13T11:25:38;101084.28;;;20.43;44.19
62942;BME280;49042;47.318;19.874;2022-10-13T11:31:49;101082.53;;;20.35;44.33
62942;BME280;49042;47.318;19.874;2022-10-13T11:35:17;101074.56;;;20.64;43.22
62942;BME280;49042;47.318;19.874;2022-10-13T11:38:33;101069.28;;;20.30;45.91
62942;BME280;49042;47.318;19.874;2022-10-13T11:45:17;101056.88;;;19.99;44.38
62942;BME280;49042;47.318;19.874;2022-10-13T11:48:43;101063.03;;;19.85;45.01
62942;BME280;49042;47.318;19.874;2022-10-13T11:52:16;101054.19;;;19.91;44.84
62942;BME280;49042;47.318;19.874;2022-10-13T11:58:32;101054.44;;;18.59;49.86
62942;BME280;49042;47.318;19.874;2022-10-13T12:01:34;101044.97;;;18.91;47.88
62942;BME280;49042;47.318;19.874;2022-10-13T12:04:37;101041.41;;;18.84;49.02
62942;BME280;49042;47.318;19.874;2022-10-13T12:07:47;101033.44;;;18.75;48.88
62942;BME280;49042;47.318;19.874;2022-10-13T12:10:52;101032.53;;;18.75;50.22
62942;BME280;49042;47.318;19.874;2022-10-13T12:13:57;101038.41;;;18.34;50.10
62942;BME280;49042;47.318;19.874;2022-10-13T12:17:01;101029.84;;;18.70;51.32
62942;BME280;49042;47.318;19.874;2022-10-13T12:20:20;101028.19;;;18.84;50.63
62942;BME280;49042;47.318;19.874;2022-10-13T12:23:22;101032.66;;;18.95;49.62
62942;BME280;49042;47.318;19.874;2022-10-13T12:26:24;101022.84;;;18.77;50.50
62942;BME280;49042;47.318;19.874;2022-10-13T12:29:27;101029.97;;;18.87;49.99
62942;BME280;49042;47.318;19.874;2022-10-13T12:32:36;101020.22;;;18.75;50.30
62942;BME280;49042;47.318;19.874;2022-10-13T12:35:38;101017.69;;;18.96;49.11
62942;BME280;49042;47.318;19.874;2022-10-13T12:38:44;101016.53;;;18.51;52.20
62942;BME280;49042;47.318;19.874;2022-10-13T12:41:49;101014.62;;;18.29;52.05
62942;BME280;49042;47.318;19.874;2022-10-13T12:44:51;101011.19;;;18.43;52.71
62942;BME280;49042;47.318;19.874;2022-10-13T12:47:54;101007.47;;;18.19;51.94
62942;BME280;49042;47.318;19.874;2022-10-13T12:51:07;100996.13;;;18.31;51.67
62942;BME280;49042;47.318;19.874;2022-10-13T12:54:30;100999.72;;;18.39;52.62
62942;BME280;49042;47.318;19.874;2022-10-13T12:57:35;100995.47;;;18.60;51.58
62942;BME280;49042;47.318;19.874;2022-10-13T13:00:39;101001.62;;;18.58;52.26
62942;BME280;49042;47.318;19.874;2022-10-13T13:03:42;100991.16;;;18.75;51.22
62942;BME280;49042;47.318;19.874;2022-10-13T13:06:53;100993.56;;;18.39;52.76
62942;BME280;49042;47.318;19.874;2022-10-13T13:10:16;100990.16;;;18.57;52.34
62942;BME280;49042;47.318;19.874;2022-10-13T13:13:21;100993.78;;;18.75;50.27
62942;BME280;49042;47.318;19.874;2022-10-13T13:16:23;100982.44;;;18.95;50.17
62942;BME280;49042;47.318;19.874;2022-10-13T13:19:25;100977.22;;;19.08;50.23
62942;BME280;49042;47.318;19.874;2022-10-13T13:22:26;100981.44;;;18.74;50.92
62942;BME280;49042;47.318;19.874;2022-10-13T13:25:28;100976.31;;;19.09;50.74
62942;BME280;49042;47.318;19.874;2022-10-13T13:28:31;100972.91;;;19.25;49.67
62942;BME280;49042;47.318;19.874;2022-10-13T13:31:33;100970.38;;;20.56;45.64
62942;BME280;49042;47.318;19.874;2022-10-13T13:34:34;100957.28;;;23.57;39.46
62942;BME280;49042;47.318;19.874;2022-10-13T13:37:42;100956.47;;;26.17;33.51
62942;BME280;49042;47.318;19.874;2022-10-13T13:40:45;100955.44;;;28.04;30.36
62942;BME280;49042;47.318;19.874;2022-10-13T13:43:47;100958.72;;;28.88;28.81
62942;BME280;49042;47.318;19.874;2022-10-13T13:46:49;100953.66;;;30.77;26.73
62942;BME280;49042;47.318;19.874;2022-10-13T13:49:52;100953.25;;;31.06;25.09
62942;BME280;49042;47.318;19.874;2022-10-13T13:52:57;100952.78;;;32.08;24.23
62942;BME280;49042;47.318;19.874;2022-10-13T13:55:59;100951.19;;;32.39;23.87
62942;BME280;49042;47.318;19.874;2022-10-13T13:59:00;100958.59;;;31.45;23.99
62942;BME280;49042;47.318;19.874;2022-10-13T14:02:02;100956.38;;;31.53;24.27
62942;BME280;49042;47.318;19.874;2022-10-13T14:05:05;100951.25;;;31.84;23.89
62942;BME280;49042;47.318;19.874;2022-10-13T14:08:07;100959.59;;;31.42;24.63
62942;BME280;49042;47.318;19.874;2022-10-13T14:11:09;100959.69;;;31.40;24.68
62942;BME280;49042;47.318;19.874;2022-10-13T14:14:11;100962.00;;;30.51;24.99
62942;BME280;49042;47.318;19.874;2022-10-13T14:17:13;100959.63;;;27.28;29.41
62942;BME280;49042;47.318;19.874;2022-10-13T14:20:15;100958.66;;;25.24;32.99
62942;BME280;49042;47.318;19.874;2022-10-13T14:23:17;100946.44;;;23.69;36.06
62942;BME280;49042;47.318;19.874;2022-10-13T14:26:19;100950.53;;;22.56;38.39
62942;BME280;49042;47.318;19.874;2022-10-13T14:29:21;100957.28;;;22.00;40.01
62942;BME280;49042;47.318;19.874;2022-10-13T14:32:22;100943.59;;;21.30;42.33
62942;BME280;49042;47.318;19.874;2022-10-13T14:35:25;100943.88;;;20.43;44.97
62942;BME280;49042;47.318;19.874;2022-10-13T14:38:26;100950.94;;;20.00;45.63
62942;BME280;49042;47.318;19.874;2022-10-13T14:41:28;100948.25;;;19.41;47.79
62942;BME280;49042;47.318;19.874;2022-10-13T14:44:30;100946.31;;;18.89;48.04
62942;BME280;49042;47.318;19.874;2022-10-13T14:47:32;100949.03;;;19.13;47.86
62942;BME280;49042;47.318;19.874;2022-10-13T14:50:36;100935.75;;;18.92;49.05
62942;BME280;49042;47.318;19.874;2022-10-13T14:53:40;100939.03;;;18.46;49.73
62942;BME280;49042;47.318;19.874;2022-10-13T14:56:42;100938.09;;;18.36;54.86
62942;BME280;49042;47.318;19.874;2022-10-13T14:59:45;100941.59;;;18.30;54.73
62942;BME280;49042;47.318;19.874;2022-10-13T15:02:47;100937.84;;;18.06;56.54
62942;BME280;49042;47.318;19.874;2022-10-13T15:05:49;100940.22;;;17.74;55.61
62942;BME280;49042;47.318;19.874;2022-10-13T15:08:51;100934.16;;;17.88;53.60
62942;BME280;49042;47.318;19.874;2022-10-13T15:11:53;100941.87;;;17.63;59.09
62942;BME280;49042;47.318;19.874;2022-10-13T15:14:54;100932.16;;;17.59;59.39
62942;BME280;49042;47.318;19.874;2022-10-13T15:17:56;100939.72;;;17.26;62.04
62942;BME280;49042;47.318;19.874;2022-10-13T15:20:58;100939.22;;;16.86;63.79
62942;BME280;49042;47.318;19.874;2022-10-13T15:24:00;100937.06;;;16.55;65.37
62942;BME280;49042;47.318;19.874;2022-10-13T15:27:02;100938.66;;;16.42;66.22
62942;BME280;49042;47.318;19.874;2022-10-13T15:30:06;100941.03;;;16.25;67.04
62942;BME280;49042;47.318;19.874;2022-10-13T15:33:08;100934.16;;;16.35;66.46
62942;BME280;49042;47.318;19.874;2022-10-13T15:36:09;100938.47;;;16.30;67.04
62942;BME280;49042;47.318;19.874;2022-10-13T15:39:11;100932.25;;;16.26;67.33
62942;BME280;49042;47.318;19.874;2022-10-13T15:42:12;100931.78;;;15.96;69.44
62942;BME280;49042;47.318;19.874;2022-10-13T15:45:15;100926.47;;;15.93;69.21
62942;BME280;49042;47.318;19.874;2022-10-13T15:48:16;100930.69;;;15.84;69.17
62942;BME280;49042;47.318;19.874;2022-10-13T15:51:21;100917.16;;;15.61;70.35
62942;BME280;49042;47.318;19.874;2022-10-13T15:54:24;100919.53;;;15.47;71.36
62942;BME280;49042;47.318;19.874;2022-10-13T15:57:26;100921.66;;;15.18;72.86
62942;BME280;49042;47.318;19.874;2022-10-13T16:00:27;100917.97;;;15.10;73.20
62942;BME280;49042;47.318;19.874;2022-10-13T16:03:29;100926.41;;;14.93;74.65
62942;BME280;49042;47.318;19.874;2022-10-13T16:06:31;100919.75;;;15.13;73.31
62942;BME280;49042;47.318;19.874;2022-10-13T16:09:34;100918.91;;;15.12;73.96
62942;BME280;49042;47.318;19.874;2022-10-13T16:12:36;100923.06;;;15.02;74.66
62942;BME280;49042;47.318;19.874;2022-10-13T16:15:38;100927.19;;;14.89;75.40
62942;BME280;49042;47.318;19.874;2022-10-13T16:18:40;100925.22;;;14.80;75.73
62942;BME280;49042;47.318;19.874;2022-10-13T16:21:42;100931.78;;;14.59;77.33
62942;BME280;49042;47.318;19.874;2022-10-13T16:24:43;100929.22;;;14.62;77.36
62942;BME280;49042;47.318;19.874;2022-10-13T16:27:45;100941.03;;;14.43;78.04
62942;BME280;49042;47.318;19.874;2022-10-13T16:30:47;100940.75;;;14.30;78.85
62942;BME280;49042;47.318;19.874;2022-10-13T16:33:48;100933.66;;;14.26;79.00
62942;BME280;49042;47.318;19.874;2022-10-13T16:36:50;100942.91;;;14.10;80.34
62942;BME280;49042;47.318;19.874;2022-10-13T16:39:52;100942.50;;;13.94;81.69